Pagina principale
METAR-TAF:

METAR-TAF

Aeroporti :

Aeroporto Internazionale del Bahrein

Bahrain, Bahrain

latitudine: 26-16N, longitudine: 050-39E, altezza: 2 m

Osservazione

Il bollettino è stato emesso 32 minuti fa, alle 05:30 UTC
Vento 3 kt da sud/sud-est, variando fra est e sud/sud-ovest
Temperature 34°C
Umidità 71%
Pressione 1008 hPa
Visibilità: 8000 m
Nubi sparse ad un'altezza di 2500 ft

METAR: OBBI 210530Z 16003KT 100V210 8000 SCT025 34/28 Q1008 NOSIG

Ora: 09:02 (06:02 UTC)

Previsione

Il bollettino è stato emesso 1 ora e 2 minuti fa, alle 05:00 UTC
Previsione valida dal 21 alle 06 UTC al 22 alle 12 UTC
Vento 5 kt da direzioni variabili
Visibilità: 7000 m
Evoluzione graduale
dal 21 alle 07 UTC al 21 alle 09 UTC
Vento 10 kt da nord-est
Evoluzione graduale
dal 21 alle 16 UTC al 21 alle 18 UTC
Vento 5 kt da direzioni variabili

TAF: OBBI 210500Z 2106/2212 VRB05KT 7000 NSC BECMG 2107/2109 05010KT BECMG 2116/2118 VRB05KT

Osservazioni e previsioni meteorologiche di più di 4000 aeroporti (messaggi METAR e TAF).

Le stazioni disponibili sono rappresentate dai dischi gialli e rossi sulla carta.

Puntare il mouse per vedere il nome della stazione.

Clicca sopra per visualizzare le osservazioni e previsioni meteorologiche.

Per cambiare la mappa : fare clic sui pulsanti verdi con una croce nera per ingrandire, il pulsante verde con un trattino per diminuire, o sulla freccia verde per le mappe adiacenti.


METAR-TAF: